EKKA/KRP METAR and TAF weather

Enter ICAO airport designator
Station Type Date Time Source
EKKA METAR 2018/07/16 23:50 UTC NOAA

EKKA 162350Z AUTO 00000KT 9999NDV NCD 16/11 Q1014


Station Type Date Time Source
EKKA Decoded METAR 2018/07/16 23:50 UTC NOAA

Karup, Denmark (EKKA) 56-18N 009-07E 53M
Jul 16, 2018 - 07:50 PM EDT / 2018.07.16 2350 UTC
Wind: Calm:0
Temperature: 60 F (16 C)
Dew Point: 51 F (11 C)
Relative Humidity: 72%
Pressure (altimeter): 29.94 in. Hg (1014 hPa)
ob: EKKA 162350Z AUTO 00000KT 9999NDV NCD 16/11 Q1014
cycle: 0

Station Type Date Time Source
EKKA TAF 2018/07/16 21:36 UTC NOAA

TAF EKKA 162025Z 1621/1718 VRB05KT 9999 FEW200 PROB40 1712/1718 6000 TSRA BKN050CB
BECMG 1715/1718 26010KT


Example: see airport list